createdAt,value
2018-03-07T00:01:15.375Z,108.83
2018-03-07T00:03:42.974Z,122.57
2018-03-07T00:06:10.549Z,130.93
2018-03-07T00:08:38.116Z,120.63
2018-03-07T00:11:05.862Z,120.97
2018-03-07T00:13:33.424Z,111.23
2018-03-07T00:16:00.978Z,113.13
2018-03-07T00:18:28.583Z,114.00
2018-03-07T00:20:56.160Z,119.43
2018-03-07T00:23:23.730Z,107.43
2018-03-07T00:25:51.371Z,121.23
2018-03-07T00:28:18.940Z,121.37
2018-03-07T00:30:46.508Z,110.20
2018-03-07T00:33:14.122Z,136.50
2018-03-07T00:35:41.678Z,126.17
2018-03-07T00:38:09.260Z,131.83
2018-03-07T00:40:36.862Z,105.43
2018-03-07T00:43:04.422Z,120.70
2018-03-07T00:45:31.981Z,123.47
2018-03-07T00:47:59.712Z,129.57
2018-03-07T00:50:27.284Z,116.57
2018-03-07T00:52:54.860Z,127.80
2018-03-07T00:55:22.463Z,234.85
2018-03-07T00:57:50.025Z,143.53
2018-03-07T01:00:17.642Z,115.10
2018-03-07T01:02:45.251Z,122.57
2018-03-07T01:05:12.816Z,119.80
2018-03-07T01:07:40.378Z,107.13
2018-03-07T01:10:07.955Z,88.73
2018-03-07T01:12:35.505Z,91.37
2018-03-07T01:15:03.059Z,69.07
2018-03-07T01:17:30.643Z,54.90
2018-03-07T01:19:58.200Z,52.00
2018-03-07T01:22:25.758Z,52.57
2018-03-07T01:24:53.354Z,56.43
2018-03-07T01:27:20.970Z,48.63
2018-03-07T01:29:48.535Z,56.33
2018-03-07T01:32:16.277Z,46.33
2018-03-07T01:34:43.844Z,47.00
2018-03-07T01:37:11.418Z,54.83
2018-03-07T01:39:39.018Z,51.40
2018-03-07T01:42:06.731Z,44.90
2018-03-07T01:44:34.289Z,48.27
2018-03-07T01:47:01.922Z,45.00
2018-03-07T01:49:29.480Z,46.27
2018-03-07T01:52:02.084Z,67.20
2018-03-07T01:54:29.646Z,73.70
2018-03-07T01:56:57.217Z,61.73
2018-03-07T01:59:24.830Z,70.40
2018-03-07T02:01:52.397Z,67.47
2018-03-07T02:04:19.960Z,52.87
2018-03-07T02:06:47.558Z,56.33
2018-03-07T02:09:15.114Z,61.97
2018-03-07T02:11:42.663Z,68.60
2018-03-07T02:14:10.258Z,66.63
2018-03-07T02:16:37.818Z,62.37
2018-03-07T02:19:05.385Z,54.30
2018-03-07T02:21:32.989Z,74.57
2018-03-07T02:24:00.556Z,63.47
2018-03-07T02:26:28.136Z,71.67
2018-03-07T02:28:55.736Z,73.37
2018-03-07T02:31:23.318Z,81.00
2018-03-07T02:33:50.878Z,68.53
2018-03-07T02:36:30.091Z,70.70
2018-03-07T02:38:57.662Z,61.50
2018-03-07T02:41:25.234Z,56.00
2018-03-07T02:43:52.831Z,61.67
2018-03-07T02:46:20.392Z,72.87
2018-03-07T02:48:47.946Z,60.13
2018-03-07T02:51:15.599Z,60.90
2018-03-07T02:53:43.163Z,64.73
2018-03-07T02:56:10.731Z,62.93
2018-03-07T02:58:38.332Z,75.47
2018-03-07T03:01:05.901Z,64.70
2018-03-07T03:03:33.465Z,59.63
2018-03-07T03:06:01.081Z,60.50
2018-03-07T03:08:28.646Z,56.83
2018-03-07T03:10:56.207Z,62.70
2018-03-07T03:13:23.815Z,64.53
2018-03-07T03:15:51.377Z,71.60
2018-03-07T03:18:18.944Z,74.97
2018-03-07T03:20:46.567Z,84.77
2018-03-07T03:23:14.126Z,76.03
2018-03-07T03:25:41.685Z,65.80
2018-03-07T03:28:09.287Z,79.87
2018-03-07T03:30:36.860Z,70.77
2018-03-07T03:33:04.430Z,76.53
2018-03-07T03:35:32.033Z,75.33
2018-03-07T03:37:59.632Z,101.90
2018-03-07T03:40:27.192Z,88.03
2018-03-07T03:42:54.797Z,77.30
2018-03-07T03:45:22.357Z,76.27
2018-03-07T03:47:49.920Z,71.20
2018-03-07T03:50:17.524Z,91.30
2018-03-07T03:52:45.126Z,114.10
2018-03-07T03:55:12.695Z,102.90
2018-03-07T03:57:40.302Z,87.07
2018-03-07T04:00:07.862Z,96.90
2018-03-07T04:02:35.429Z,104.20
2018-03-07T04:05:03.026Z,111.57
2018-03-07T04:07:30.606Z,94.33
2018-03-07T04:09:58.183Z,85.93
2018-03-07T04:12:25.810Z,80.47
2018-03-07T04:14:53.375Z,87.97
2018-03-07T04:17:20.939Z,81.20
2018-03-07T04:19:48.534Z,85.43
2018-03-07T04:22:16.103Z,79.70
2018-03-07T04:24:43.678Z,78.47
2018-03-07T04:27:11.301Z,81.60
2018-03-07T04:29:38.996Z,72.50
2018-03-07T04:32:06.567Z,78.47
2018-03-07T04:34:34.175Z,91.13
2018-03-07T04:37:01.743Z,79.40
2018-03-07T04:39:29.309Z,77.83
2018-03-07T04:41:56.914Z,75.80
2018-03-07T04:44:24.484Z,96.20
2018-03-07T04:46:52.048Z,97.30
2018-03-07T04:49:19.656Z,80.57
2018-03-07T04:51:47.232Z,73.67
2018-03-07T04:54:14.802Z,88.60
2018-03-07T04:56:42.412Z,83.80
2018-03-07T04:59:09.981Z,100.90
2018-03-07T05:01:37.598Z,103.10
2018-03-07T05:04:05.197Z,92.63
2018-03-07T05:06:32.762Z,85.43
2018-03-07T05:09:00.342Z,88.90
2018-03-07T05:11:27.956Z,77.17
2018-03-07T05:13:55.514Z,59.10
2018-03-07T05:16:23.070Z,61.37
2018-03-07T05:18:50.683Z,59.60
2018-03-07T05:21:18.247Z,68.10
2018-03-07T05:23:45.820Z,59.00
2018-03-07T05:26:13.429Z,51.10
2018-03-07T05:28:40.998Z,61.77
2018-03-07T05:31:08.568Z,58.40
2018-03-07T05:33:36.180Z,53.80
2018-03-07T05:36:03.754Z,64.10
2018-03-07T05:38:31.377Z,62.10
2018-03-07T05:40:58.976Z,61.30
2018-03-07T05:43:26.537Z,58.87
2018-03-07T05:45:54.277Z,56.50
2018-03-07T05:48:21.886Z,59.83
2018-03-07T05:50:49.448Z,62.37
2018-03-07T05:53:17.095Z,54.23
2018-03-07T05:55:44.714Z,50.63
2018-03-07T05:58:12.298Z,52.17
2018-03-07T06:00:39.863Z,50.93
2018-03-07T06:03:07.478Z,50.87
2018-03-07T06:05:35.092Z,43.83
2018-03-07T06:08:02.711Z,46.00
2018-03-07T06:10:30.321Z,60.10
2018-03-07T06:12:57.907Z,65.53
2018-03-07T06:15:25.477Z,54.00
2018-03-07T06:17:53.087Z,52.50
2018-03-07T06:20:20.654Z,71.53
2018-03-07T06:22:48.231Z,62.30
2018-03-07T06:25:15.842Z,68.87
2018-03-07T06:27:43.420Z,71.23
2018-03-07T06:30:11.048Z,70.60
2018-03-07T06:32:38.654Z,82.17
2018-03-07T06:35:06.223Z,74.63
2018-03-07T06:37:33.795Z,68.50
2018-03-07T06:40:01.410Z,54.47
2018-03-07T06:42:28.992Z,69.30
2018-03-07T06:44:56.554Z,88.07
2018-03-07T06:47:24.174Z,80.93
2018-03-07T06:49:51.748Z,83.80
2018-03-07T06:52:19.311Z,66.67
2018-03-07T06:54:46.952Z,66.33
2018-03-07T06:57:14.523Z,65.90
2018-03-07T06:59:42.091Z,54.30
2018-03-07T07:02:09.698Z,59.30
2018-03-07T07:04:37.260Z,55.97
2018-03-07T07:07:04.832Z,54.90
2018-03-07T07:09:32.440Z,56.87
2018-03-07T07:12:00.041Z,45.83
2018-03-07T07:14:27.611Z,53.80
2018-03-07T07:16:55.231Z,43.67
2018-03-07T07:19:22.807Z,44.93
2018-03-07T07:21:50.390Z,39.00
2018-03-07T07:24:18.011Z,52.43
2018-03-07T07:26:45.819Z,49.23
2018-03-07T07:29:13.439Z,48.57
2018-03-07T07:31:41.048Z,47.63
2018-03-07T07:34:08.610Z,49.77
2018-03-07T07:36:36.180Z,48.53
2018-03-07T07:39:03.886Z,51.70
2018-03-07T07:41:31.580Z,70.90
2018-03-07T07:43:59.210Z,84.33
2018-03-07T07:46:26.824Z,83.93
2018-03-07T07:48:54.433Z,79.53
2018-03-07T07:51:22.035Z,77.93
2018-03-07T07:53:49.837Z,71.50
2018-03-07T07:56:17.402Z,78.83
2018-03-07T07:58:45.180Z,108.00
2018-03-07T08:01:12.787Z,85.63
2018-03-07T08:03:40.355Z,92.23
2018-03-07T08:06:07.975Z,91.20
2018-03-07T08:08:35.588Z,83.63
2018-03-07T08:11:03.293Z,112.83
2018-03-07T08:13:30.869Z,81.00
2018-03-07T08:15:58.484Z,75.50
2018-03-07T08:18:26.061Z,67.93
2018-03-07T08:20:53.620Z,60.90
2018-03-07T08:23:21.291Z,65.77
2018-03-07T08:25:48.850Z,60.33
2018-03-07T08:28:16.406Z,24.23
2018-03-07T08:30:43.986Z,110.03
2018-03-07T08:33:11.531Z,12.20
2018-03-07T08:35:39.132Z,10.30
2018-03-07T08:38:07.173Z,15.30
2018-03-07T08:40:34.733Z,9.03
2018-03-07T08:43:02.290Z,8.40
2018-03-07T08:45:29.907Z,6.80
2018-03-07T08:47:57.465Z,9.57
2018-03-07T08:50:25.024Z,9.20
2018-03-07T08:52:52.651Z,8.33
2018-03-07T08:55:20.218Z,10.13
2018-03-07T08:57:47.847Z,7.83
2018-03-07T09:00:15.430Z,10.30
2018-03-07T09:02:43.003Z,13.03
2018-03-07T09:05:10.562Z,5.47
2018-03-07T09:07:38.173Z,15.13
2018-03-07T09:10:05.747Z,12.63
2018-03-07T09:12:33.310Z,13.47
2018-03-07T09:15:00.908Z,10.10
2018-03-07T09:17:28.475Z,24.13
2018-03-07T09:19:56.034Z,10.63
2018-03-07T09:22:23.649Z,6.40
2018-03-07T09:24:51.204Z,9.13
2018-03-07T09:27:18.951Z,10.50
2018-03-07T09:29:46.563Z,11.20
2018-03-07T09:32:14.299Z,17.20
2018-03-07T09:34:41.857Z,24.80
2018-03-07T09:37:09.456Z,6.43
2018-03-07T09:39:37.011Z,14.70
2018-03-07T09:42:04.561Z,7.03
2018-03-07T09:44:32.164Z,8.33
2018-03-07T09:46:59.715Z,9.70
2018-03-07T09:49:27.282Z,5.93
2018-03-07T09:51:54.878Z,7.03
2018-03-07T09:54:22.476Z,11.33
2018-03-07T09:56:50.028Z,25.47
2018-03-07T09:59:17.625Z,18.70
2018-03-07T10:01:45.178Z,18.03
2018-03-07T10:04:12.727Z,6.90
2018-03-07T10:06:40.332Z,5.93
2018-03-07T10:09:07.899Z,4.63
2018-03-07T10:11:35.464Z,8.97
2018-03-07T10:14:03.059Z,5.67
2018-03-07T10:16:30.646Z,8.33
2018-03-07T10:18:58.210Z,9.50
2018-03-07T10:21:25.800Z,18.83
2018-03-07T10:23:53.365Z,14.67
2018-03-07T10:26:20.909Z,5.20
2018-03-07T10:28:48.496Z,9.13
2018-03-07T10:31:16.039Z,34.13
2018-03-07T10:33:43.578Z,5.47
2018-03-07T10:36:11.200Z,14.27
2018-03-07T10:38:38.755Z,8.33
2018-03-07T10:41:06.308Z,5.93
2018-03-07T10:43:33.914Z,8.27
2018-03-07T10:46:01.690Z,12.67
2018-03-07T10:48:29.307Z,6.93
2018-03-07T10:50:56.928Z,6.27
2018-03-07T10:53:24.488Z,9.17
2018-03-07T10:55:52.129Z,12.20
2018-03-07T10:58:19.953Z,6.73
2018-03-07T11:00:47.519Z,10.17
2018-03-07T11:03:15.136Z,10.53
2018-03-07T11:05:42.742Z,7.80
2018-03-07T11:08:10.306Z,15.00
2018-03-07T11:10:37.870Z,19.67
2018-03-07T11:13:05.473Z,23.43
2018-03-07T11:15:33.032Z,13.33
2018-03-07T11:18:00.584Z,11.43
2018-03-07T11:20:28.167Z,9.50
2018-03-07T11:22:55.719Z,17.43
2018-03-07T11:25:23.278Z,4.60
2018-03-07T11:27:50.920Z,33.67
2018-03-07T11:30:18.462Z,6.73
2018-03-07T11:32:46.020Z,12.80
2018-03-07T11:35:13.614Z,7.43
2018-03-07T11:37:41.182Z,6.90
2018-03-07T11:40:08.741Z,20.70
2018-03-07T11:42:36.323Z,5.37
2018-03-07T11:45:03.925Z,10.60
2018-03-07T11:47:31.436Z,8.27
2018-03-07T11:49:59.021Z,7.13
2018-03-07T11:52:26.568Z,13.33
2018-03-07T11:54:54.217Z,9.40
2018-03-07T11:57:21.819Z,14.40
2018-03-07T11:59:49.374Z,11.77
2018-03-07T12:02:16.920Z,12.50
2018-03-07T12:04:44.518Z,12.63
2018-03-07T12:07:12.069Z,9.60
2018-03-07T12:09:39.663Z,6.87
2018-03-07T12:12:07.264Z,12.70
2018-03-07T12:14:34.824Z,94.70
2018-03-07T12:17:02.547Z,20.33
2018-03-07T12:19:30.141Z,9.13
2018-03-07T12:21:57.703Z,8.20
2018-03-07T12:24:25.285Z,7.47
2018-03-07T12:26:52.863Z,9.53
2018-03-07T12:29:20.413Z,23.73
2018-03-07T12:31:47.957Z,24.17
2018-03-07T12:34:15.525Z,8.83
2018-03-07T12:36:43.070Z,46.90
2018-03-07T12:39:10.631Z,35.20
2018-03-07T12:41:38.237Z,30.63
2018-03-07T12:44:05.808Z,16.30
2018-03-07T12:46:33.363Z,13.57
2018-03-07T12:49:00.960Z,11.07
2018-03-07T12:51:28.522Z,10.43
2018-03-07T12:53:56.082Z,9.90
2018-03-07T12:56:23.892Z,7.40
2018-03-07T12:58:51.455Z,25.63
2018-03-07T13:01:19.000Z,9.33
2018-03-07T13:03:46.590Z,7.60
2018-03-07T13:06:14.336Z,30.67
2018-03-07T13:08:41.939Z,17.13
2018-03-07T13:11:09.525Z,13.90
2018-03-07T13:13:37.076Z,17.33
2018-03-07T13:16:04.631Z,23.83
2018-03-07T13:18:32.211Z,20.05
2018-03-07T13:20:59.778Z,13.53
2018-03-07T13:23:27.335Z,17.07
2018-03-07T13:25:54.960Z,13.63
2018-03-07T13:28:22.542Z,27.63
2018-03-07T13:30:50.268Z,14.30
2018-03-07T13:33:17.892Z,29.80
2018-03-07T13:35:45.478Z,35.17
2018-03-07T13:38:13.074Z,17.95
2018-03-07T13:40:40.680Z,19.63
2018-03-07T13:43:08.250Z,21.13
2018-03-07T13:45:35.825Z,14.27
2018-03-07T13:48:03.453Z,33.00
2018-03-07T13:50:31.108Z,22.73
2018-03-07T13:52:58.648Z,21.23
2018-03-07T13:55:26.270Z,22.40
2018-03-07T13:57:53.921Z,33.83
2018-03-07T14:00:21.501Z,35.30
2018-03-07T14:02:49.080Z,28.30
2018-03-07T14:05:16.688Z,14.40
2018-03-07T14:07:44.292Z,21.63
2018-03-07T14:10:11.928Z,14.83
2018-03-07T14:12:39.640Z,27.70
2018-03-07T14:15:07.224Z,22.63
2018-03-07T14:17:34.784Z,29.13
2018-03-07T14:20:02.398Z,23.53
2018-03-07T14:22:29.965Z,24.37
2018-03-07T14:24:57.527Z,17.30
2018-03-07T14:27:25.155Z,32.23
2018-03-07T14:29:52.713Z,30.90
2018-03-07T14:32:20.288Z,25.13
2018-03-07T14:34:47.939Z,34.50
2018-03-07T14:37:15.537Z,34.37
2018-03-07T14:39:43.186Z,35.77
2018-03-07T14:42:10.752Z,34.37
2018-03-07T14:44:38.361Z,43.53
2018-03-07T14:47:05.925Z,32.93
2018-03-07T14:49:33.493Z,29.53
2018-03-07T14:52:01.091Z,25.13
2018-03-07T14:54:28.662Z,26.13
2018-03-07T14:56:56.226Z,22.97
2018-03-07T14:59:23.823Z,43.85
2018-03-07T15:01:51.412Z,34.47
2018-03-07T15:04:19.015Z,39.33
2018-03-07T15:06:46.636Z,44.83
2018-03-07T15:09:14.206Z,80.57
2018-03-07T15:11:41.768Z,41.17
2018-03-07T15:14:09.390Z,25.00
2018-03-07T15:16:36.977Z,26.90
2018-03-07T15:19:04.544Z,16.80
2018-03-07T15:21:32.144Z,13.37
2018-03-07T15:23:59.723Z,28.87
2018-03-07T15:26:27.360Z,32.27
2018-03-07T15:28:55.391Z,54.97
2018-03-07T15:31:23.030Z,58.60
2018-03-07T15:33:50.624Z,44.20
2018-03-07T15:36:18.237Z,40.30
2018-03-07T15:38:46.450Z,38.90
2018-03-07T15:41:14.144Z,23.83
2018-03-07T15:43:42.069Z,23.10
2018-03-07T15:46:10.216Z,25.90
2018-03-07T15:48:40.132Z,73.40
2018-03-07T15:51:11.620Z,45.03
2018-03-07T15:53:41.980Z,65.30
2018-03-07T15:56:09.929Z,43.90
2018-03-07T15:58:38.149Z,31.87
2018-03-07T16:01:06.216Z,29.60
2018-03-07T16:03:34.295Z,31.40
2018-03-07T16:06:01.989Z,25.97
2018-03-07T16:08:29.568Z,52.07
2018-03-07T16:10:57.148Z,38.37
2018-03-07T16:13:24.765Z,48.20
2018-03-07T16:15:52.342Z,33.30
2018-03-07T16:18:19.926Z,30.97
2018-03-07T16:20:47.544Z,30.53
2018-03-07T16:23:15.373Z,27.47
2018-03-07T16:25:42.973Z,25.53
2018-03-07T16:28:10.585Z,29.60
2018-03-07T16:30:38.162Z,37.17
2018-03-07T16:33:05.741Z,39.33
2018-03-07T16:35:33.408Z,44.13
2018-03-07T16:38:00.975Z,36.60
2018-03-07T16:40:28.555Z,117.00
2018-03-07T16:42:56.184Z,136.43
2018-03-07T16:45:23.768Z,52.03
2018-03-07T16:47:51.343Z,44.70
2018-03-07T16:50:18.942Z,28.43
2018-03-07T16:52:46.513Z,31.90
2018-03-07T16:55:14.094Z,49.37
2018-03-07T16:57:41.724Z,193.63
2018-03-07T17:00:09.328Z,216.60
2018-03-07T17:02:36.908Z,113.37
2018-03-07T17:05:04.585Z,74.33
2018-03-07T17:07:32.159Z,139.80
2018-03-07T17:10:00.281Z,67.33
2018-03-07T17:12:27.956Z,100.77
2018-03-07T17:14:55.533Z,120.77
2018-03-07T17:17:23.092Z,100.30
2018-03-07T17:19:50.704Z,86.57
2018-03-07T17:22:18.284Z,93.90
2018-03-07T17:24:45.855Z,64.70
2018-03-07T17:27:13.460Z,53.27
2018-03-07T17:29:41.031Z,51.87
2018-03-07T17:32:08.660Z,57.10
2018-03-07T17:34:36.329Z,46.27
2018-03-07T17:37:03.883Z,39.23
2018-03-07T17:39:31.448Z,31.90
2018-03-07T17:41:59.049Z,55.50
2018-03-07T17:44:26.677Z,49.13
2018-03-07T17:46:54.363Z,55.90
2018-03-07T17:49:22.354Z,56.10
2018-03-07T17:51:49.951Z,35.33
2018-03-07T17:54:17.610Z,44.00
2018-03-07T17:56:45.170Z,46.00
2018-03-07T17:59:12.784Z,39.17
2018-03-07T18:01:40.532Z,35.47
2018-03-07T18:04:08.642Z,55.80
2018-03-07T18:06:36.562Z,45.07
2018-03-07T18:09:04.299Z,38.10
2018-03-07T18:11:31.906Z,33.10
2018-03-07T18:13:59.576Z,44.93
2018-03-07T18:16:27.456Z,45.23
2018-03-07T18:18:55.262Z,79.70
2018-03-07T18:21:22.826Z,49.47
2018-03-07T18:23:50.443Z,60.97
2018-03-07T18:26:18.223Z,45.80
2018-03-07T18:28:45.800Z,40.57
2018-03-07T18:31:13.629Z,30.00
2018-03-07T18:33:41.938Z,25.53
2018-03-07T18:36:09.806Z,26.60
2018-03-07T18:38:37.846Z,20.07
2018-03-07T18:41:06.487Z,168.73
2018-03-07T18:43:34.660Z,22.97
2018-03-07T18:46:02.782Z,16.20
2018-03-07T18:48:30.796Z,18.90
2018-03-07T18:50:59.664Z,66.93
2018-03-07T18:53:28.235Z,167.00
2018-03-07T18:55:56.523Z,12.90
2018-03-07T18:58:24.855Z,22.53
2018-03-07T19:00:53.964Z,22.67
2018-03-07T19:03:21.867Z,30.23
2018-03-07T19:05:49.545Z,38.70
2018-03-07T19:08:17.427Z,50.37
2018-03-07T19:10:45.065Z,67.20
2018-03-07T19:13:13.569Z,41.40
2018-03-07T19:15:41.652Z,35.93
2018-03-07T19:18:09.800Z,27.30
2018-03-07T19:20:37.654Z,26.00
2018-03-07T19:23:06.127Z,25.47
2018-03-07T19:25:35.151Z,41.23
2018-03-07T19:28:03.428Z,36.73
2018-03-07T19:30:31.397Z,37.77
2018-03-07T19:32:59.206Z,47.93
2018-03-07T19:35:26.758Z,76.40
2018-03-07T19:37:54.372Z,360.17
2018-03-07T19:40:21.962Z,159.80
2018-03-07T19:42:49.606Z,70.57
2018-03-07T19:45:17.186Z,103.73
2018-03-07T19:47:44.784Z,87.30
2018-03-07T19:50:12.365Z,68.90
2018-03-07T19:52:40.015Z,49.23
2018-03-07T19:55:07.574Z,55.07
2018-03-07T19:57:35.162Z,94.60
2018-03-07T20:00:03.354Z,115.63
2018-03-07T20:02:31.029Z,136.20
2018-03-07T20:04:58.956Z,57.57
2018-03-07T20:07:26.662Z,94.57
2018-03-07T20:09:54.600Z,80.90
2018-03-07T20:12:23.234Z,65.87
2018-03-07T20:14:51.013Z,52.23
2018-03-07T20:17:18.623Z,52.63
2018-03-07T20:19:46.207Z,60.83
2018-03-07T20:22:13.777Z,58.43
2018-03-07T20:24:41.415Z,60.00
2018-03-07T20:27:09.003Z,50.23
2018-03-07T20:29:36.574Z,49.43
2018-03-07T20:32:04.214Z,67.60
2018-03-07T20:34:31.791Z,49.33
2018-03-07T20:36:59.356Z,45.20
2018-03-07T20:39:26.985Z,72.30
2018-03-07T20:41:55.520Z,80.37
2018-03-07T20:44:23.087Z,59.90
2018-03-07T20:46:50.689Z,60.27
2018-03-07T20:49:18.293Z,60.17
2018-03-07T20:51:45.867Z,65.90
2018-03-07T20:54:13.478Z,67.20
2018-03-07T20:56:41.044Z,66.57
2018-03-07T20:59:09.529Z,63.83
2018-03-07T21:01:37.136Z,52.83
2018-03-07T21:04:04.701Z,53.33
2018-03-07T21:06:32.260Z,48.80
2018-03-07T21:08:59.994Z,54.67
2018-03-07T21:11:27.536Z,52.00
2018-03-07T21:13:55.135Z,50.67
2018-03-07T21:16:22.799Z,48.53
2018-03-07T21:18:50.362Z,47.60
2018-03-07T21:21:18.333Z,79.10
2018-03-07T21:23:45.937Z,45.70
2018-03-07T21:26:13.497Z,44.73
2018-03-07T21:28:41.085Z,32.73
2018-03-07T21:31:08.696Z,36.17
2018-03-07T21:33:36.332Z,45.93
2018-03-07T21:36:03.910Z,56.90
2018-03-07T21:38:31.521Z,47.30
2018-03-07T21:40:59.101Z,44.30
2018-03-07T21:43:26.685Z,33.90
2018-03-07T21:45:54.304Z,51.30
2018-03-07T21:48:21.863Z,66.33
2018-03-07T21:50:49.410Z,73.53
2018-03-07T21:53:17.023Z,68.30
2018-03-07T21:55:44.599Z,55.77
2018-03-07T21:58:12.144Z,50.23
2018-03-07T22:00:39.749Z,42.73
2018-03-07T22:03:07.310Z,47.80
2018-03-07T22:05:34.867Z,42.97
2018-03-07T22:08:02.467Z,101.10
2018-03-07T22:10:30.026Z,44.47
2018-03-07T22:12:57.581Z,67.77
2018-03-07T22:15:25.186Z,107.70
2018-03-07T22:17:52.731Z,59.00
2018-03-07T22:20:20.298Z,72.37
2018-03-07T22:22:47.886Z,73.10
2018-03-07T22:25:15.435Z,56.03
2018-03-07T22:27:43.005Z,50.23
2018-03-07T22:30:10.622Z,53.73
2018-03-07T22:32:38.196Z,47.30
2018-03-07T22:35:05.762Z,50.63
2018-03-07T22:37:33.564Z,52.20
2018-03-07T22:40:01.111Z,49.87
2018-03-07T22:42:28.931Z,38.85
2018-03-07T22:44:56.608Z,30.63
2018-03-07T22:47:24.168Z,33.90
2018-03-07T22:49:51.733Z,58.50
2018-03-07T22:52:19.346Z,44.93
2018-03-07T22:54:46.937Z,46.60
2018-03-07T22:57:14.524Z,34.10
2018-03-07T22:59:42.157Z,42.10
2018-03-07T23:02:09.744Z,64.93
2018-03-07T23:04:37.301Z,47.33
2018-03-07T23:07:04.970Z,57.27
2018-03-07T23:09:32.526Z,48.80
2018-03-07T23:12:00.116Z,43.80
2018-03-07T23:14:27.750Z,52.80
2018-03-07T23:16:55.371Z,61.10
2018-03-07T23:19:22.943Z,53.60
2018-03-07T23:21:50.547Z,53.97
2018-03-07T23:24:18.115Z,52.90
2018-03-07T23:26:45.689Z,58.73
2018-03-07T23:29:13.308Z,57.60
2018-03-07T23:31:40.890Z,55.00
2018-03-07T23:34:08.475Z,56.03
2018-03-07T23:36:36.087Z,59.53
2018-03-07T23:39:03.704Z,53.60
2018-03-07T23:41:31.266Z,49.93
2018-03-07T23:43:58.888Z,100.03
2018-03-07T23:46:26.476Z,69.77
2018-03-07T23:48:54.047Z,47.80
2018-03-07T23:51:21.648Z,51.23
2018-03-07T23:53:49.208Z,51.83
2018-03-07T23:56:16.770Z,111.17
2018-03-07T23:58:44.380Z,47.93
